Terminal Aerodrome Forecast
Issued by NWS Charleston, WV

Current Version | Previous Version | Graphics & Text | Print | Product List | Glossary On
Versions: 1 2 3 4 5 6 7 8 9 10 11 12 13 14 15 16 17 18 19 20 21
428
FTUS41 KRLX 040539
TAFBKW
TAF
KBKW 040539Z 0406/0506 32007KT P6SM BKN035
     FM040800 32006KT P6SM OVC025
     FM041200 30006KT P6SM OVC015
     FM042000 31007KT P6SM BKN025=

USA.gov is the U.S. government's official web portal to all federal, state and local government web resources and services.